Time;durP1;ratioP1;P1;durP2;ratioP2;P2;SDS_P1;SDS_P2;PMS_P1;PMS_P2;Temp;Humidity;BMP_temperature;BMP_pressure;BME280_temperature;BME280_humidity;BME280_pressure;Samples;Min_cycle;Max_cycle;Signal;HPM_P1;HPM_P2
2023/04/07 00:00:29;;;;;;;44.33;31.60;;;;;;;8.05;100.00;101318.25;5095819;28;20023;-58
2023/04/07 00:02:54;;;;;;;44.17;32.97;;;;;;;8.09;100.00;101322.53;5125530;27;20031;-57
2023/04/07 00:05:22;;;;;;;46.08;34.65;;;;;;;8.05;100.00;101326.22;5108587;27;20034;-58
2023/04/07 00:07:48;;;;;;;47.72;33.90;;;;;;;8.08;100.00;101331.38;5115661;28;20110;-58
2023/04/07 00:10:15;;;;;;;49.47;34.20;;;;;;;8.07;100.00;101328.81;5096903;28;20057;-58
2023/04/07 00:12:43;;;;;;;41.88;32.83;;;;;;;8.06;100.00;101327.97;5115875;28;20451;-58
2023/04/07 00:15:09;;;;;;;41.50;32.28;;;;;;;8.03;100.00;101328.09;5094759;28;20024;-58
2023/04/07 00:17:37;;;;;;;43.28;33.83;;;;;;;8.06;100.00;101327.06;5097910;28;20020;-58
2023/04/07 00:20:02;;;;;;;38.95;31.88;;;;;;;8.03;100.00;101313.97;5115959;27;20307;-58
2023/04/07 00:22:28;;;;;;;39.28;32.55;;;;;;;8.09;100.00;101324.28;5115385;28;20411;-58
2023/04/07 00:24:53;;;;;;;44.92;33.35;;;;;;;8.09;100.00;101324.28;5098931;27;20126;-58
2023/04/07 00:27:19;;;;;;;43.45;34.03;;;;;;;8.09;100.00;101340.19;5108859;28;20016;-58
2023/04/07 00:29:46;;;;;;;44.97;34.20;;;;;;;8.09;100.00;101342.81;5113256;28;20054;-58
2023/04/07 00:32:12;;;;;;;37.75;32.28;;;;;;;8.07;100.00;101342.91;5114692;28;20023;-58
2023/04/07 00:34:37;;;;;;;39.35;31.98;;;;;;;8.06;100.00;101332.38;5095363;28;20088;-58
2023/04/07 00:37:05;;;;;;;42.40;33.38;;;;;;;8.02;100.00;101325.50;5130037;27;20065;-58
2023/04/07 00:39:31;;;;;;;40.10;33.20;;;;;;;8.05;100.00;101331.50;5104347;28;20020;-58
2023/04/07 00:41:57;;;;;;;43.75;33.13;;;;;;;8.13;100.00;101333.84;5103583;28;20492;-58
2023/04/07 00:44:23;;;;;;;43.28;34.30;;;;;;;8.08;100.00;101334.03;5115270;27;20067;-58
2023/04/07 00:46:48;;;;;;;39.03;31.63;;;;;;;8.06;100.00;101321.78;5085772;28;20382;-58
2023/04/07 00:49:16;;;;;;;38.20;32.30;;;;;;;8.06;100.00;101324.41;5096788;28;20098;-58
2023/04/07 00:51:42;;;;;;;42.85;32.65;;;;;;;8.09;100.00;101329.56;5111458;28;20470;-58
2023/04/07 00:54:09;;;;;;;43.50;31.73;;;;;;;8.01;100.00;101329.94;5126488;27;20037;-57
2023/04/07 00:56:34;;;;;;;41.03;33.30;;;;;;;8.00;100.00;101333.53;5114486;27;20023;-58
2023/04/07 00:59:00;;;;;;;38.53;31.83;;;;;;;8.05;100.00;101334.16;5110879;28;20028;-58
2023/04/07 01:01:39;;;;;;;43.72;33.40;;;;;;;8.02;100.00;101333.44;5095681;28;20426;-57
2023/04/07 01:04:12;;;;;;;40.00;32.60;;;;;;;8.05;100.00;101336.81;5096566;28;20444;-58
2023/04/07 01:06:46;;;;;;;43.55;35.28;;;;;;;7.98;100.00;101338.03;5092135;28;20042;-57
2023/04/07 01:09:18;;;;;;;41.00;32.60;;;;;;;8.00;100.00;101338.81;5094079;28;20107;-57
2023/04/07 01:12:08;;;;;;;42.25;33.50;;;;;;;8.05;100.00;101339.47;5112398;27;20019;-57
2023/04/07 01:14:50;;;;;;;40.67;32.83;;;;;;;7.96;100.00;101338.06;5115138;27;20097;-57
2023/04/07 01:17:19;;;;;;;43.33;35.28;;;;;;;7.93;100.00;101335.56;5075434;28;20395;-57
2023/04/07 01:19:55;;;;;;;48.38;35.88;;;;;;;7.91;100.00;101334.78;5100215;28;20390;-57
2023/04/07 01:22:27;;;;;;;41.75;34.83;;;;;;;7.92;100.00;101336.50;5095286;28;20039;-57
2023/04/07 01:25:35;;;;;;;44.63;35.65;;;;;;;7.95;100.00;101330.22;5120010;27;20462;-57
2023/04/07 01:28:01;;;;;;;43.08;35.38;;;;;;;7.85;100.00;101337.72;5060412;28;20039;-57
2023/04/07 01:30:33;;;;;;;43.85;35.65;;;;;;;7.83;100.00;101338.72;5112242;28;20099;-57
2023/04/07 01:33:00;;;;;;;42.45;35.15;;;;;;;7.79;100.00;101345.03;5114311;28;20069;-57
2023/04/07 01:35:29;;;;;;;44.25;35.83;;;;;;;7.71;100.00;101335.66;5095669;28;20035;-57
2023/04/07 01:37:56;;;;;;;43.70;33.25;;;;;;;7.74;100.00;101339.97;5093631;28;20024;-58
2023/04/07 01:40:23;;;;;;;39.05;34.58;;;;;;;7.81;100.00;101340.56;5092238;28;20054;-57
2023/04/07 01:42:50;;;;;;;38.97;30.35;;;;;;;7.79;100.00;101347.69;5078814;28;20044;-57
2023/04/07 01:45:19;;;;;;;31.73;28.17;;;;;;;7.83;100.00;101351.94;5112221;28;20027;-57
2023/04/07 01:47:45;;;;;;;29.52;25.63;;;;;;;7.82;100.00;101336.97;5107066;28;20383;-58
2023/04/07 01:50:12;;;;;;;29.17;25.90;;;;;;;7.82;100.00;101356.34;5109267;27;20032;-57
2023/04/07 01:52:39;;;;;;;26.92;24.13;;;;;;;7.78;100.00;101356.56;5088739;28;20027;-57
2023/04/07 01:55:08;;;;;;;28.20;23.63;;;;;;;7.77;100.00;101354.88;5112710;28;20489;-57
2023/04/07 01:57:34;;;;;;;26.92;22.77;;;;;;;7.83;100.00;101366.03;5112867;27;20069;-57
2023/04/07 01:59:59;;;;;;;26.58;22.55;;;;;;;7.88;100.00;101358.75;5093375;28;20035;-57
2023/04/07 02:02:25;;;;;;;26.17;22.25;;;;;;;7.93;100.00;101370.00;5095061;28;20664;-57
2023/04/07 02:04:55;;;;;;;25.02;21.98;;;;;;;7.86;100.00;101375.66;5093344;28;20440;-57
2023/04/07 02:08:02;;;;;;;25.55;21.23;;;;;;;7.87;100.00;101370.28;5112257;28;20053;-57
2023/04/07 02:10:31;;;;;;;24.80;20.85;;;;;;;7.86;100.00;101363.25;5093807;28;20398;-57
2023/04/07 02:13:02;;;;;;;27.70;22.08;;;;;;;7.86;100.00;101370.34;5103128;28;20036;-57
2023/04/07 02:15:30;;;;;;;27.10;22.83;;;;;;;7.85;100.00;101364.19;5092880;28;20035;-57
2023/04/07 02:17:57;;;;;;;26.95;22.52;;;;;;;7.82;100.00;101363.44;5074885;28;20027;-57
2023/04/07 02:20:23;;;;;;;28.67;22.77;;;;;;;7.86;100.00;101362.41;5101783;27;20023;-57
2023/04/07 02:22:48;;;;;;;31.50;23.73;;;;;;;7.86;100.00;101363.25;5099715;28;20066;-57
2023/04/07 02:25:31;;;;;;;26.30;22.50;;;;;;;7.93;100.00;101363.84;5112376;28;20050;-57
2023/04/07 02:27:58;;;;;;;24.67;21.77;;;;;;;7.83;100.00;101366.03;5088511;28;20030;-58
2023/04/07 02:30:24;;;;;;;24.33;21.73;;;;;;;7.80;100.00;101367.97;5112622;27;20508;-57
2023/04/07 02:32:50;;;;;;;28.15;24.42;;;;;;;7.74;100.00;101348.75;5133017;27;20029;-57
2023/04/07 02:35:16;;;;;;;27.55;23.55;;;;;;;7.70;100.00;101348.94;5124651;27;20114;-57
2023/04/07 02:37:42;;;;;;;26.48;21.52;;;;;;;7.83;100.00;101362.53;5112030;28;20016;-57
2023/04/07 02:40:08;;;;;;;27.55;24.55;;;;;;;7.81;100.00;101359.09;5115856;27;20027;-57
2023/04/07 02:42:33;;;;;;;28.67;25.15;;;;;;;7.79;100.00;101356.50;5097034;27;20089;-57
2023/04/07 02:44:59;;;;;;;30.75;25.20;;;;;;;7.71;100.00;101340.09;5074758;28;20027;-57
2023/04/07 02:47:25;;;;;;;31.77;24.60;;;;;;;7.72;100.00;101358.56;5123984;27;20032;-57
2023/04/07 02:49:50;;;;;;;31.40;27.92;;;;;;;7.72;100.00;101357.69;5092571;28;20046;-57
2023/04/07 02:52:16;;;;;;;32.70;27.52;;;;;;;7.77;100.00;101368.09;5097653;27;20024;-57
2023/04/07 02:54:41;;;;;;;30.35;26.98;;;;;;;7.79;100.00;101359.13;5093639;28;20028;-57
2023/04/07 02:57:07;;;;;;;31.45;26.15;;;;;;;7.77;100.00;101361.00;5103217;28;20080;-57
2023/04/07 02:59:32;;;;;;;27.25;24.38;;;;;;;7.74;100.00;101359.34;5111100;28;20031;-57
2023/04/07 03:01:58;;;;;;;37.80;25.83;;;;;;;7.78;100.00;101367.16;5092645;28;20028;-57
2023/04/07 03:04:23;;;;;;;31.15;23.10;;;;;;;7.76;100.00;101366.38;5083355;28;20362;-57
2023/04/07 03:06:49;;;;;;;26.92;24.02;;;;;;;7.80;100.00;101367.97;5093652;28;20035;-57
2023/04/07 03:09:14;;;;;;;26.40;23.50;;;;;;;7.79;100.00;101364.44;5092276;28;20026;-57
2023/04/07 03:11:43;;;;;;;27.02;23.33;;;;;;;7.75;100.00;101362.84;5110016;28;20047;-57
2023/04/07 03:14:08;;;;;;;27.25;22.83;;;;;;;7.81;100.00;101369.69;5112506;28;20769;-57
2023/04/07 03:16:33;;;;;;;30.88;22.67;;;;;;;7.86;100.00;101376.50;5106734;28;20061;-57
2023/04/07 03:18:59;;;;;;;25.98;22.98;;;;;;;7.77;100.00;101374.25;5107208;28;20024;-57
2023/04/07 03:21:24;;;;;;;29.42;22.73;;;;;;;7.83;100.00;101376.63;5111868;27;20047;-57
2023/04/07 03:23:52;;;;;;;24.80;21.67;;;;;;;7.77;100.00;101376.03;5107252;28;20027;-57
2023/04/07 03:26:17;;;;;;;25.75;22.90;;;;;;;7.79;100.00;101364.44;5090174;28;20470;-57
2023/04/07 03:28:43;;;;;;;26.10;22.10;;;;;;;7.77;100.00;101366.31;5093958;28;20037;-57
2023/04/07 03:31:08;;;;;;;25.58;21.88;;;;;;;7.83;100.00;101374.00;5124086;28;20050;-57
2023/04/07 03:33:34;;;;;;;31.92;22.65;;;;;;;7.78;100.00;101370.66;5132271;28;20072;-57
2023/04/07 03:35:59;;;;;;;23.80;20.35;;;;;;;7.73;100.00;101368.25;5091184;28;20028;-57
2023/04/07 03:38:25;;;;;;;27.85;22.55;;;;;;;7.72;100.00;101370.94;5103763;28;20386;-57
2023/04/07 03:40:50;;;;;;;29.98;22.73;;;;;;;7.65;100.00;101366.84;5092957;28;20023;-58
2023/04/07 03:43:16;;;;;;;28.50;22.77;;;;;;;7.70;100.00;101373.63;5089614;28;20052;-57
2023/04/07 03:45:42;;;;;;;28.23;22.60;;;;;;;7.70;100.00;101360.41;5093444;28;20066;-57
2023/04/07 03:48:10;;;;;;;26.92;22.23;;;;;;;7.55;100.00;101354.91;5093387;28;20043;-57
2023/04/07 03:50:39;;;;;;;30.15;23.80;;;;;;;7.67;100.00;101373.75;5111833;28;20020;-57
2023/04/07 03:53:04;;;;;;;30.20;24.50;;;;;;;7.60;100.00;101351.13;5111575;28;20231;-57
2023/04/07 03:55:30;;;;;;;31.95;25.05;;;;;;;7.68;100.00;101369.34;5116831;28;20430;-57
2023/04/07 03:57:56;;;;;;;33.30;25.48;;;;;;;7.68;100.00;101372.00;5114094;28;20027;-57
2023/04/07 04:00:22;;;;;;;30.42;26.00;;;;;;;7.61;100.00;101365.22;5112678;28;20019;-57
2023/04/07 04:02:47;;;;;;;33.33;24.75;;;;;;;7.71;100.00;101372.72;5124248;28;20024;-57
2023/04/07 04:05:13;;;;;;;33.15;25.48;;;;;;;7.67;100.00;101372.91;5111745;28;20030;-57
2023/04/07 04:07:38;;;;;;;33.45;26.08;;;;;;;7.64;100.00;101376.53;5093722;28;20591;-57
2023/04/07 04:10:04;;;;;;;32.42;26.58;;;;;;;7.65;100.00;101380.06;5093519;28;20478;-57
2023/04/07 04:12:30;;;;;;;32.63;26.73;;;;;;;7.62;100.00;101369.63;5112812;28;20397;-57
2023/04/07 04:14:55;;;;;;;27.92;24.50;;;;;;;7.62;100.00;101375.78;5111733;28;20027;-57
2023/04/07 04:17:26;;;;;;;31.70;24.35;;;;;;;7.57;100.00;101368.94;5111523;28;20016;-57
2023/04/07 04:19:53;;;;;;;36.28;25.27;;;;;;;7.55;100.00;101370.78;5111617;28;20051;-57
2023/04/07 04:22:18;;;;;;;31.33;26.13;;;;;;;7.50;100.00;101376.28;5098918;28;20534;-57
2023/04/07 04:24:43;;;;;;;36.92;26.13;;;;;;;7.45;100.00;101372.97;5132236;28;20034;-57
2023/04/07 04:27:09;;;;;;;35.38;26.30;;;;;;;7.44;100.00;101371.22;5113770;28;20389;-57
2023/04/07 04:29:34;;;;;;;36.13;24.83;;;;;;;7.45;100.00;101373.81;5132136;28;20027;-57
2023/04/07 04:32:02;;;;;;;36.60;25.13;;;;;;;7.38;100.00;101369.72;5112343;28;20493;-58
2023/04/07 04:34:28;;;;;;;34.75;25.45;;;;;;;7.40;100.00;101373.16;5117743;28;20031;-58
2023/04/07 04:36:53;;;;;;;35.47;25.77;;;;;;;7.41;100.00;101376.63;5134014;27;20072;-57
2023/04/07 04:39:19;;;;;;;32.00;24.35;;;;;;;7.42;100.00;101376.59;5135765;27;20477;-57
2023/04/07 04:41:45;;;;;;;39.88;25.38;;;;;;;7.41;100.00;101384.59;5117319;27;20015;-57
2023/04/07 04:44:11;;;;;;;31.85;24.70;;;;;;;7.41;100.00;101381.94;5133846;27;20057;-58
2023/04/07 04:46:36;;;;;;;33.85;24.55;;;;;;;7.46;100.00;101390.56;5117147;27;20107;-57
2023/04/07 04:49:02;;;;;;;36.17;25.25;;;;;;;7.41;100.00;101397.81;5135760;27;20662;-57
2023/04/07 04:51:27;;;;;;;33.65;25.80;;;;;;;7.43;100.00;101410.06;5134689;27;20398;-58
2023/04/07 04:53:52;;;;;;;31.48;26.08;;;;;;;7.34;100.00;101399.00;5135663;27;20426;-58
2023/04/07 04:56:18;;;;;;;35.97;25.15;;;;;;;7.32;100.00;101407.00;5115219;27;20035;-57
2023/04/07 04:58:45;;;;;;;37.22;26.23;;;;;;;7.37;100.00;101405.03;5135529;27;20110;-59
2023/04/07 05:01:13;;;;;;;31.92;25.15;;;;;;;7.41;100.00;101411.03;5134806;27;20023;-57
2023/04/07 05:03:39;;;;;;;34.63;25.67;;;;;;;7.37;100.00;101414.75;5106276;28;20023;-58
2023/04/07 05:06:05;;;;;;;37.30;24.58;;;;;;;7.43;100.00;101415.34;5114613;28;20100;-57
2023/04/07 05:08:30;;;;;;;32.03;24.80;;;;;;;7.37;100.00;101423.53;5115359;27;20027;-57
2023/04/07 05:10:56;;;;;;;37.08;25.45;;;;;;;7.41;100.00;101418.97;5114481;28;20020;-57
2023/04/07 05:13:21;;;;;;;35.38;25.45;;;;;;;7.39;100.00;101415.56;5097369;27;20028;-57
2023/04/07 05:15:47;;;;;;;34.08;24.52;;;;;;;7.37;100.00;101420.03;5095507;28;20051;-57
2023/04/07 05:18:15;;;;;;;37.10;25.83;;;;;;;7.32;100.00;101416.72;5096207;28;20102;-58
2023/04/07 05:20:40;;;;;;;36.92;25.65;;;;;;;7.30;100.00;101429.16;5114560;28;20390;-57
2023/04/07 05:23:06;;;;;;;37.95;26.33;;;;;;;7.32;100.00;101419.34;5104000;27;20337;-57
2023/04/07 05:25:31;;;;;;;39.70;26.25;;;;;;;7.32;100.00;101427.28;5133955;27;20496;-57
2023/04/07 05:27:58;;;;;;;34.53;26.27;;;;;;;7.17;100.00;101419.03;5134845;27;20019;-57
2023/04/07 05:30:28;;;;;;;36.70;25.83;;;;;;;7.41;100.00;101429.56;5133995;27;20119;-57
2023/04/07 05:32:54;;;;;;;46.83;27.73;;;;;;;7.32;100.00;101430.81;5114526;27;20031;-57
2023/04/07 05:35:19;;;;;;;36.97;26.65;;;;;;;7.33;100.00;101436.97;5115989;27;20020;-57
2023/04/07 05:37:45;;;;;;;40.00;26.98;;;;;;;7.35;100.00;101441.25;5134722;27;20430;-57
2023/04/07 05:40:10;;;;;;;35.50;28.40;;;;;;;7.40;100.00;101449.03;5116414;27;20473;-57
2023/04/07 05:42:36;;;;;;;41.88;28.60;;;;;;;7.37;100.00;101446.50;5108966;28;20560;-57
2023/04/07 05:45:02;;;;;;;37.95;29.10;;;;;;;7.44;100.00;101445.31;5095256;28;20043;-57
2023/04/07 05:47:27;;;;;;;42.03;28.77;;;;;;;7.46;100.00;101440.84;5112538;28;20426;-57
2023/04/07 05:49:53;;;;;;;46.70;29.27;;;;;;;7.40;100.00;101446.38;5095242;28;20023;-57
2023/04/07 05:52:18;;;;;;;41.00;28.63;;;;;;;7.31;100.00;101436.16;5112204;28;20076;-58
2023/04/07 05:54:43;;;;;;;43.90;30.00;;;;;;;7.31;100.00;101439.66;5096025;28;20028;-57
2023/04/07 05:57:09;;;;;;;46.35;30.92;;;;;;;7.29;100.00;101444.16;5111657;28;20034;-57
2023/04/07 05:59:35;;;;;;;43.05;30.35;;;;;;;7.27;100.00;101435.44;5081949;28;20104;-57
2023/04/07 06:02:01;;;;;;;42.53;31.13;;;;;;;7.28;100.00;101438.00;5111464;27;20103;-57
2023/04/07 06:04:26;;;;;;;41.70;31.10;;;;;;;7.30;100.00;101445.91;5112204;28;20490;-57
2023/04/07 06:06:54;;;;;;;41.10;30.25;;;;;;;7.40;100.00;101449.88;5111994;28;20034;-57
2023/04/07 06:09:20;;;;;;;43.05;31.00;;;;;;;7.39;100.00;101453.47;5113285;28;20473;-58
2023/04/07 06:11:46;;;;;;;39.42;30.85;;;;;;;7.51;100.00;101452.09;5113059;28;20047;-58
2023/04/07 06:14:11;;;;;;;41.78;31.38;;;;;;;7.49;100.00;101464.53;5112558;27;20541;-57
2023/04/07 06:16:36;;;;;;;38.42;30.50;;;;;;;7.49;100.00;101457.44;5108197;27;20019;-57
2023/04/07 06:19:02;;;;;;;46.58;31.67;;;;;;;7.48;100.00;101460.19;5133847;27;20072;-58
2023/04/07 06:21:28;;;;;;;41.25;32.42;;;;;;;7.46;100.00;101468.16;5133421;27;20047;-58
2023/04/07 06:23:53;;;;;;;41.58;32.67;;;;;;;7.37;100.00;101450.00;5092850;28;20023;-57
2023/04/07 06:26:20;;;;;;;43.28;32.47;;;;;;;7.51;100.00;101460.06;5092415;28;20031;-58
2023/04/07 06:28:46;;;;;;;42.55;33.58;;;;;;;7.63;100.00;101470.13;5092630;28;20019;-58
2023/04/07 06:31:11;;;;;;;45.40;32.95;;;;;;;7.56;100.00;101459.84;5110597;27;20016;-57
2023/04/07 06:33:36;;;;;;;43.05;32.20;;;;;;;7.58;100.00;101463.31;5096056;28;20024;-57
2023/04/07 06:36:02;;;;;;;40.35;33.00;;;;;;;7.57;100.00;101474.81;5098685;28;20429;-58
2023/04/07 06:38:27;;;;;;;40.58;31.60;;;;;;;7.61;100.00;101479.91;5087027;28;20024;-57
2023/04/07 06:40:53;;;;;;;38.85;32.60;;;;;;;7.63;100.00;101466.63;5103089;28;20023;-57
2023/04/07 06:43:18;;;;;;;42.92;31.23;;;;;;;7.68;100.00;101467.31;5105063;28;20041;-58
2023/04/07 06:45:46;;;;;;;40.40;31.42;;;;;;;7.71;100.00;101473.34;5079902;28;20024;-58
2023/04/07 06:48:11;;;;;;;39.88;30.35;;;;;;;7.73;100.00;101476.78;5092608;28;20016;-58
2023/04/07 06:50:37;;;;;;;37.17;30.25;;;;;;;7.72;100.00;101480.34;5092876;28;20034;-57
2023/04/07 06:53:03;;;;;;;38.85;29.27;;;;;;;7.73;100.00;101474.16;5105697;27;20108;-58
2023/04/07 06:55:29;;;;;;;36.20;30.38;;;;;;;7.77;100.00;101488.13;5112457;28;20031;-58
2023/04/07 06:57:54;;;;;;;40.35;30.88;;;;;;;7.79;100.00;101488.88;5093356;28;20027;-58
2023/04/07 07:00:21;;;;;;;36.45;29.92;;;;;;;7.92;100.00;101498.06;5104914;28;20046;-58
2023/04/07 07:02:48;;;;;;;36.58;29.80;;;;;;;7.92;100.00;101490.13;5116011;27;20679;-58
2023/04/07 07:05:13;;;;;;;34.65;29.42;;;;;;;8.02;100.00;101492.38;5101337;28;20036;-57
2023/04/07 07:07:38;;;;;;;32.78;27.08;;;;;;;8.12;100.00;101497.25;5111182;27;20024;-58
2023/04/07 07:10:09;;;;;;;32.22;27.02;;;;;;;8.17;100.00;101497.88;5112098;28;20512;-58
2023/04/07 07:12:35;;;;;;;31.98;25.48;;;;;;;8.23;100.00;101506.50;5113250;27;20035;-58
2023/04/07 07:15:00;;;;;;;29.05;23.73;;;;;;;8.16;100.00;101506.75;5106060;28;20027;-57
2023/04/07 07:17:26;;;;;;;30.60;24.30;;;;;;;8.08;100.00;101500.91;5109584;28;20505;-58
2023/04/07 07:19:51;;;;;;;30.63;24.38;;;;;;;8.10;100.00;101506.16;5104714;28;20092;-58
2023/04/07 07:22:16;;;;;;;30.48;23.92;;;;;;;8.13;100.00;101504.25;5099802;28;20493;-58
2023/04/07 07:24:42;;;;;;;30.35;23.15;;;;;;;8.15;100.00;101510.34;5105857;28;20027;-58
2023/04/07 07:27:08;;;;;;;30.67;22.10;;;;;;;8.28;100.00;101508.03;5118924;27;20092;-58
2023/04/07 07:29:33;;;;;;;32.33;22.52;;;;;;;8.31;100.00;101510.53;5111646;28;20062;-58
2023/04/07 07:31:58;;;;;;;24.83;21.10;;;;;;;8.34;100.00;101510.41;5093992;28;20118;-58
2023/04/07 07:34:24;;;;;;;29.33;21.70;;;;;;;8.44;100.00;101512.69;5111434;28;20387;-58
2023/04/07 07:36:49;;;;;;;27.88;21.00;;;;;;;8.53;100.00;101512.28;5109039;28;20032;-58
2023/04/07 07:39:15;;;;;;;23.02;18.25;;;;;;;8.52;100.00;101521.19;5105742;28;20386;-58
2023/04/07 07:41:40;;;;;;;22.52;18.77;;;;;;;8.54;100.00;101527.28;5111224;28;20449;-58
2023/04/07 07:44:06;;;;;;;22.77;18.70;;;;;;;8.59;100.00;101525.31;5095391;28;20047;-58
2023/04/07 07:46:31;;;;;;;23.02;17.33;;;;;;;8.66;100.00;101525.88;5122948;28;20020;-58
2023/04/07 07:48:57;;;;;;;20.40;14.32;;;;;;;8.60;100.00;101533.19;5106924;28;20522;-58
2023/04/07 07:51:22;;;;;;;21.77;15.07;;;;;;;8.52;100.00;101526.47;5108770;28;20030;-58
2023/04/07 07:53:50;;;;;;;19.13;14.43;;;;;;;8.59;100.00;101533.25;5104042;28;20569;-58
2023/04/07 07:56:15;;;;;;;19.00;13.25;;;;;;;8.51;100.00;101536.22;5101358;28;20035;-58
2023/04/07 07:58:40;;;;;;;17.70;12.73;;;;;;;8.60;100.00;101541.13;5083541;28;20028;-58
2023/04/07 08:01:06;;;;;;;16.73;12.18;;;;;;;8.61;100.00;101540.19;5106683;28;20023;-58
2023/04/07 08:03:31;;;;;;;14.02;11.27;;;;;;;8.67;100.00;101538.22;5110947;28;20023;-58
2023/04/07 08:05:57;;;;;;;16.30;12.45;;;;;;;8.67;100.00;101544.38;5126865;28;20062;-58
2023/04/07 08:08:22;;;;;;;20.60;11.90;;;;;;;8.72;100.00;101544.19;5111316;28;20099;-58
2023/04/07 08:10:48;;;;;;;16.45;11.13;;;;;;;8.76;100.00;101543.97;5111753;28;20509;-58
2023/04/07 08:13:13;;;;;;;13.98;10.77;;;;;;;8.78;100.00;101533.28;5115830;28;20024;-58
2023/04/07 08:15:39;;;;;;;17.83;11.63;;;;;;;8.81;100.00;101544.63;5116463;27;20023;-58
2023/04/07 08:18:05;;;;;;;13.35;11.82;;;;;;;8.94;100.00;101557.34;5097571;28;20023;-58
2023/04/07 08:20:31;;;;;;;13.38;11.13;;;;;;;8.97;100.00;101555.44;5115616;28;20368;-58
2023/04/07 08:22:58;;;;;;;11.52;10.35;;;;;;;9.05;100.00;101558.56;5097091;28;20053;-58
2023/04/07 08:25:23;;;;;;;13.25;10.85;;;;;;;8.98;100.00;101540.38;5131668;27;20110;-57
2023/04/07 08:27:49;;;;;;;11.57;9.70;;;;;;;9.08;100.00;101561.09;5135891;27;20110;-57
2023/04/07 08:30:14;;;;;;;12.77;10.82;;;;;;;8.99;99.29;101566.81;5135553;27;20025;-57
2023/04/07 08:32:42;;;;;;;13.93;11.38;;;;;;;8.98;98.29;101575.72;5117384;27;20023;-58
2023/04/07 08:35:08;;;;;;;17.25;9.98;;;;;;;8.90;97.78;101569.88;5105377;28;20036;-58
2023/04/07 08:37:34;;;;;;;12.82;10.48;;;;;;;8.91;99.38;101573.38;5096649;28;20374;-57
2023/04/07 08:40:00;;;;;;;13.82;9.90;;;;;;;8.84;98.72;101581.63;5114981;28;20027;-58
2023/04/07 08:42:28;;;;;;;13.00;8.98;;;;;;;8.84;98.57;101583.41;5096924;28;20020;-58
2023/04/07 08:45:01;;;;;;;11.45;8.65;;;;;;;8.83;96.96;101579.91;5129875;27;20075;-58
2023/04/07 08:47:27;;;;;;;12.00;8.35;;;;;;;8.75;95.69;101583.81;5135135;27;20027;-57
2023/04/07 08:49:59;;;;;;;12.73;8.43;;;;;;;8.69;95.73;101581.44;5135826;27;20542;-58
2023/04/07 08:52:32;;;;;;;10.60;7.78;;;;;;;8.61;95.80;101582.63;5116884;27;20500;-58
2023/04/07 08:55:01;;;;;;;11.13;7.88;;;;;;;8.63;95.31;101594.03;5133923;27;20393;-58
2023/04/07 08:57:29;;;;;;;10.57;8.03;;;;;;;8.68;96.55;101596.50;5135377;27;20431;-58
2023/04/07 08:59:57;;;;;;;11.82;8.20;;;;;;;8.73;96.28;101596.28;5117074;27;20272;-58
2023/04/07 09:02:22;;;;;;;10.55;8.00;;;;;;;8.79;96.55;101596.00;5116623;27;20106;-58
2023/04/07 09:04:48;;;;;;;9.40;7.65;;;;;;;8.80;95.91;101597.75;5133537;27;20098;-57
2023/04/07 09:07:15;;;;;;;10.55;7.75;;;;;;;8.92;95.72;101607.81;5134826;27;20015;-58
2023/04/07 09:09:41;;;;;;;9.70;7.95;;;;;;;9.04;94.89;101601.13;5134693;27;20011;-58
2023/04/07 09:12:06;;;;;;;8.68;7.50;;;;;;;9.16;94.87;101603.22;5114698;28;20440;-58
2023/04/07 09:14:32;;;;;;;10.35;7.90;;;;;;;9.16;93.20;101603.22;5125128;27;20049;-58
2023/04/07 09:16:58;;;;;;;11.48;7.78;;;;;;;9.20;94.23;101610.09;5134570;27;20027;-58
2023/04/07 09:19:26;;;;;;;11.15;8.02;;;;;;;9.13;92.68;101599.84;5116322;27;20106;-58
2023/04/07 09:21:52;;;;;;;12.27;8.15;;;;;;;9.26;93.61;101604.50;5134501;27;20023;-58
2023/04/07 09:24:22;;;;;;;10.57;8.05;;;;;;;9.33;93.80;101611.28;5133092;27;20027;-57
2023/04/07 09:26:50;;;;;;;13.13;8.40;;;;;;;9.37;94.15;101613.78;5116495;27;20106;-58
2023/04/07 09:29:18;;;;;;;16.08;8.18;;;;;;;9.39;92.45;101609.28;5134602;27;20522;-58
2023/04/07 09:31:53;;;;;;;10.20;7.95;;;;;;;9.51;94.06;101611.38;5112881;27;20020;-58
2023/04/07 09:34:29;;;;;;;9.88;7.75;;;;;;;9.52;93.44;101613.94;5105342;27;20493;-58
2023/04/07 09:36:56;;;;;;;11.70;7.72;;;;;;;9.39;90.29;101620.75;5074920;28;20028;-58
2023/04/07 09:39:24;;;;;;;10.23;7.63;;;;;;;9.44;91.53;101601.94;5112229;28;20534;-58
2023/04/07 09:41:50;;;;;;;10.70;7.85;;;;;;;9.49;91.66;101606.13;5090645;27;20122;-58
2023/04/07 09:44:17;;;;;;;11.25;7.68;;;;;;;9.55;92.63;101610.28;5112355;27;20035;-58
2023/04/07 09:46:56;;;;;;;9.63;7.97;;;;;;;9.66;91.15;101615.09;5112667;28;20471;-58
2023/04/07 09:49:23;;;;;;;;;;;;;;;9.89;92.21;101619.34;5104301;28;20020;-58
2023/04/07 09:51:53;;;;;;;13.82;8.10;;;;;;;9.77;89.38;101610.16;5103166;28;19998;-58
2023/04/07 09:54:36;;;;;;;8.95;7.72;;;;;;;9.94;91.03;101610.22;5125001;27;20030;-58
2023/04/07 09:57:06;;;;;;;8.23;7.38;;;;;;;9.82;88.19;101609.91;5105048;28;20031;-58
2023/04/07 09:59:39;;;;;;;7.38;6.50;;;;;;;9.78;89.44;101618.03;5113235;28;20272;-58
2023/04/07 10:02:05;;;;;;;16.83;7.75;;;;;;;9.80;90.74;101612.66;5087618;28;20058;-58
2023/04/07 10:04:31;;;;;;;15.50;8.98;;;;;;;9.66;89.00;101608.00;5106655;27;20486;-58
2023/04/07 10:06:59;;;;;;;11.65;8.00;;;;;;;9.61;91.23;101617.97;5094180;27;20019;-58
2023/04/07 10:09:29;;;;;;;11.18;8.23;;;;;;;9.42;91.70;101617.09;5092773;28;20072;-58
2023/04/07 10:11:57;;;;;;;16.27;8.27;;;;;;;9.43;92.65;101621.47;5112560;28;20024;-58
2023/04/07 10:14:26;;;;;;;16.25;8.45;;;;;;;9.47;93.92;101623.94;5111675;28;20534;-57
2023/04/07 10:16:51;;;;;;;13.93;7.97;;;;;;;9.36;92.58;101618.25;5112298;28;20592;-58
2023/04/07 10:19:18;;;;;;;16.50;8.88;;;;;;;9.38;92.53;101628.78;5093173;28;20119;-57
2023/04/07 10:21:46;;;;;;;18.45;8.50;;;;;;;9.33;92.56;101627.19;5112459;28;20106;-58
2023/04/07 10:24:19;;;;;;;20.63;8.45;;;;;;;9.33;92.77;101632.50;5089697;28;20409;-57
2023/04/07 10:26:50;;;;;;;12.95;7.90;;;;;;;9.24;91.61;101634.72;5111241;28;20031;-58
2023/04/07 10:29:18;;;;;;;14.30;8.95;;;;;;;9.16;92.35;101607.66;5109485;28;20045;-57
2023/04/07 10:31:45;;;;;;;15.10;8.27;;;;;;;9.32;92.96;101629.91;5110216;28;20029;-57
2023/04/07 10:34:10;;;;;;;15.07;8.20;;;;;;;9.40;92.30;101645.50;5093764;28;20032;-58
2023/04/07 10:37:12;;;;;;;11.00;7.80;;;;;;;9.52;91.79;101645.78;5090258;28;20043;-58
2023/04/07 10:39:38;;;;;;;13.00;7.43;;;;;;;9.66;92.15;101649.63;5102375;27;20023;-57
2023/04/07 10:42:03;;;;;;;14.68;7.43;;;;;;;9.80;93.04;101649.00;5112544;27;20034;-57
2023/04/07 10:44:38;;;;;;;12.77;7.80;;;;;;;9.83;90.11;101649.72;5112538;28;20482;-58
2023/04/07 10:47:05;;;;;;;12.80;7.78;;;;;;;9.81;89.12;101658.69;5109052;27;20039;-58
2023/04/07 10:49:32;;;;;;;14.40;7.72;;;;;;;9.80;88.60;101656.97;5112173;28;20099;-58
2023/04/07 10:52:10;;;;;;;10.95;6.47;;;;;;;9.75;88.19;101654.50;5112231;28;20037;-58
2023/04/07 10:54:35;;;;;;;11.80;7.68;;;;;;;9.73;88.14;101656.38;5109656;28;20031;-58
2023/04/07 10:57:10;;;;;;;16.05;7.95;;;;;;;9.60;88.26;101660.53;5096087;28;20445;-58
2023/04/07 10:59:38;;;;;;;16.23;8.55;;;;;;;9.59;89.05;101662.34;5112656;27;20036;-58
2023/04/07 11:02:12;;;;;;;13.90;7.88;;;;;;;9.72;88.79;101665.28;5103108;28;20020;-58
2023/04/07 11:04:43;;;;;;;13.82;8.15;;;;;;;9.73;87.81;101667.00;5094023;28;20063;-58
2023/04/07 11:07:11;;;;;;;14.45;7.82;;;;;;;9.80;86.54;101659.63;5108688;28;20102;-58
2023/04/07 11:09:37;;;;;;;16.92;8.68;;;;;;;9.91;86.65;101655.53;5112280;28;20019;-58
2023/04/07 11:12:03;;;;;;;16.63;7.50;;;;;;;9.90;84.74;101663.56;5093980;28;20029;-58
2023/04/07 11:14:30;;;;;;;11.73;6.82;;;;;;;9.95;85.98;101661.56;5093242;28;20039;-58